Tabas Airport

Airport
ICAO code: 
OIMT
IATA Code: 
TCX
Summary
ICAO Region: 
APAC
Territory: 
Location: 
Tabas, South Khorasan
Serving: 
Tabas
Elevation: 
2312 ft
Coordinates: 
Aerial View: 
33° 40' 9.316" N, 56° 53' 49.416" E
Metar
Observation
OIMT 280830Z 28002KT CAVOK 20/02 Q1020
Station
Tabas
Date/Time
2021-11-28 08:30:00
Wind direction
280°
Wind speed
02 kts
Lowest cloud amount
clouds and visibility OK
Temperature
20°C
Dew point
2°C
Humidity
30%
QNH
1020 hPa
Weather condition
n/a

Airport serving Tabas a city in the South Khorasan Province of central Iran.

Climatology

Cold semi-arid climate (Köppen climate classification BSk)

Runways

Designator Length Width Surface Rops
15/33 3041 45 ASP No/No
Airport map: 
Aerial View: 

SKYbrary Partners:

Safety knowledge contributed by: